sensor_id;sensor_type;location;lat;lon;timestamp;P1;durP1;ratioP1;P2;durP2;ratioP2
24833;SDS011;12914;43.702;22.862;2022-07-09T00:01:58;7.13;;;5.85;;
24833;SDS011;12914;43.702;22.862;2022-07-09T00:04:23;7.90;;;6.20;;
24833;SDS011;12914;43.702;22.862;2022-07-09T00:06:49;5.95;;;5.35;;
24833;SDS011;12914;43.702;22.862;2022-07-09T00:09:15;7.15;;;5.90;;
24833;SDS011;12914;43.702;22.862;2022-07-09T00:11:40;6.50;;;5.75;;
24833;SDS011;12914;43.702;22.862;2022-07-09T00:14:06;7.97;;;6.43;;
24833;SDS011;12914;43.702;22.862;2022-07-09T00:16:32;7.28;;;6.35;;
24833;SDS011;12914;43.702;22.862;2022-07-09T00:18:57;8.02;;;6.30;;
24833;SDS011;12914;43.702;22.862;2022-07-09T00:21:23;9.02;;;6.45;;
24833;SDS011;12914;43.702;22.862;2022-07-09T00:23:49;8.45;;;6.53;;
24833;SDS011;12914;43.702;22.862;2022-07-09T00:26:14;6.82;;;5.78;;
24833;SDS011;12914;43.702;22.862;2022-07-09T00:28:40;8.65;;;6.20;;
24833;SDS011;12914;43.702;22.862;2022-07-09T00:31:06;6.85;;;6.15;;
24833;SDS011;12914;43.702;22.862;2022-07-09T00:33:32;8.77;;;7.20;;
24833;SDS011;12914;43.702;22.862;2022-07-09T00:35:57;8.68;;;6.85;;
24833;SDS011;12914;43.702;22.862;2022-07-09T00:38:23;7.63;;;6.65;;
24833;SDS011;12914;43.702;22.862;2022-07-09T00:40:49;10.00;;;7.40;;
24833;SDS011;12914;43.702;22.862;2022-07-09T00:43:19;8.18;;;7.35;;
24833;SDS011;12914;43.702;22.862;2022-07-09T00:45:46;9.77;;;6.65;;
24833;SDS011;12914;43.702;22.862;2022-07-09T00:48:12;6.97;;;6.28;;
24833;SDS011;12914;43.702;22.862;2022-07-09T00:50:39;6.95;;;6.10;;
24833;SDS011;12914;43.702;22.862;2022-07-09T00:53:06;7.25;;;6.47;;
24833;SDS011;12914;43.702;22.862;2022-07-09T00:55:34;7.78;;;6.18;;
24833;SDS011;12914;43.702;22.862;2022-07-09T00:58:01;6.97;;;6.28;;
24833;SDS011;12914;43.702;22.862;2022-07-09T01:00:27;6.32;;;5.68;;
24833;SDS011;12914;43.702;22.862;2022-07-09T01:02:53;6.70;;;5.72;;
24833;SDS011;12914;43.702;22.862;2022-07-09T01:05:19;8.38;;;5.70;;
24833;SDS011;12914;43.702;22.862;2022-07-09T01:07:44;7.15;;;6.40;;
24833;SDS011;12914;43.702;22.862;2022-07-09T01:10:10;9.00;;;6.30;;
24833;SDS011;12914;43.702;22.862;2022-07-09T01:12:36;6.72;;;6.03;;
24833;SDS011;12914;43.702;22.862;2022-07-09T01:15:02;8.73;;;6.82;;
24833;SDS011;12914;43.702;22.862;2022-07-09T01:17:28;7.13;;;6.43;;
24833;SDS011;12914;43.702;22.862;2022-07-09T01:19:53;7.75;;;7.00;;
24833;SDS011;12914;43.702;22.862;2022-07-09T01:22:19;8.85;;;6.38;;
24833;SDS011;12914;43.702;22.862;2022-07-09T01:24:45;7.90;;;6.88;;
24833;SDS011;12914;43.702;22.862;2022-07-09T01:27:11;7.68;;;6.70;;
24833;SDS011;12914;43.702;22.862;2022-07-09T01:29:37;7.25;;;6.55;;
24833;SDS011;12914;43.702;22.862;2022-07-09T01:32:03;8.52;;;7.43;;
24833;SDS011;12914;43.702;22.862;2022-07-09T01:34:29;7.38;;;6.57;;
24833;SDS011;12914;43.702;22.862;2022-07-09T01:36:54;8.02;;;7.00;;
24833;SDS011;12914;43.702;22.862;2022-07-09T01:39:20;8.05;;;6.63;;
24833;SDS011;12914;43.702;22.862;2022-07-09T01:41:45;7.82;;;7.07;;
24833;SDS011;12914;43.702;22.862;2022-07-09T01:44:11;8.10;;;6.43;;
24833;SDS011;12914;43.702;22.862;2022-07-09T01:46:37;6.93;;;6.13;;
24833;SDS011;12914;43.702;22.862;2022-07-09T01:49:03;8.75;;;5.28;;
24833;SDS011;12914;43.702;22.862;2022-07-09T01:51:29;8.57;;;5.97;;
24833;SDS011;12914;43.702;22.862;2022-07-09T01:53:54;7.40;;;6.10;;
24833;SDS011;12914;43.702;22.862;2022-07-09T01:56:20;7.45;;;6.22;;
24833;SDS011;12914;43.702;22.862;2022-07-09T01:58:46;7.38;;;6.68;;
24833;SDS011;12914;43.702;22.862;2022-07-09T02:01:11;6.60;;;5.75;;
24833;SDS011;12914;43.702;22.862;2022-07-09T02:03:37;6.20;;;5.70;;
24833;SDS011;12914;43.702;22.862;2022-07-09T02:06:03;7.85;;;5.28;;
24833;SDS011;12914;43.702;22.862;2022-07-09T02:08:29;6.72;;;6.03;;
24833;SDS011;12914;43.702;22.862;2022-07-09T02:10:55;6.13;;;5.53;;
24833;SDS011;12914;43.702;22.862;2022-07-09T02:13:20;6.43;;;5.15;;
24833;SDS011;12914;43.702;22.862;2022-07-09T02:15:46;6.13;;;5.35;;
24833;SDS011;12914;43.702;22.862;2022-07-09T02:18:12;7.07;;;6.05;;
24833;SDS011;12914;43.702;22.862;2022-07-09T02:20:37;10.68;;;6.15;;
24833;SDS011;12914;43.702;22.862;2022-07-09T02:23:03;8.35;;;6.25;;
24833;SDS011;12914;43.702;22.862;2022-07-09T02:25:28;6.85;;;6.05;;
24833;SDS011;12914;43.702;22.862;2022-07-09T02:27:55;7.88;;;6.88;;
24833;SDS011;12914;43.702;22.862;2022-07-09T02:30:20;8.70;;;7.00;;
24833;SDS011;12914;43.702;22.862;2022-07-09T02:32:46;8.20;;;6.72;;
24833;SDS011;12914;43.702;22.862;2022-07-09T02:35:11;7.60;;;6.70;;
24833;SDS011;12914;43.702;22.862;2022-07-09T02:37:37;9.52;;;7.25;;
24833;SDS011;12914;43.702;22.862;2022-07-09T02:40:03;9.65;;;7.60;;
24833;SDS011;12914;43.702;22.862;2022-07-09T02:42:29;10.40;;;8.25;;
24833;SDS011;12914;43.702;22.862;2022-07-09T02:44:55;8.07;;;7.25;;
24833;SDS011;12914;43.702;22.862;2022-07-09T02:47:20;11.48;;;8.27;;
24833;SDS011;12914;43.702;22.862;2022-07-09T02:49:46;9.63;;;7.72;;
24833;SDS011;12914;43.702;22.862;2022-07-09T02:52:11;8.90;;;7.55;;
24833;SDS011;12914;43.702;22.862;2022-07-09T02:54:37;11.07;;;8.75;;
24833;SDS011;12914;43.702;22.862;2022-07-09T02:57:03;9.50;;;8.50;;
24833;SDS011;12914;43.702;22.862;2022-07-09T02:59:28;10.63;;;9.25;;
24833;SDS011;12914;43.702;22.862;2022-07-09T03:01:54;9.75;;;8.07;;
24833;SDS011;12914;43.702;22.862;2022-07-09T03:04:19;13.02;;;8.85;;
24833;SDS011;12914;43.702;22.862;2022-07-09T03:06:45;9.63;;;8.60;;
24833;SDS011;12914;43.702;22.862;2022-07-09T03:09:10;13.73;;;9.35;;
24833;SDS011;12914;43.702;22.862;2022-07-09T03:11:36;9.40;;;8.35;;
24833;SDS011;12914;43.702;22.862;2022-07-09T03:14:02;10.32;;;8.93;;
24833;SDS011;12914;43.702;22.862;2022-07-09T03:16:27;11.35;;;9.15;;
24833;SDS011;12914;43.702;22.862;2022-07-09T03:18:53;15.20;;;10.32;;
24833;SDS011;12914;43.702;22.862;2022-07-09T03:21:19;12.57;;;10.25;;
24833;SDS011;12914;43.702;22.862;2022-07-09T03:23:45;11.50;;;9.55;;
24833;SDS011;12914;43.702;22.862;2022-07-09T03:26:10;12.20;;;9.88;;
24833;SDS011;12914;43.702;22.862;2022-07-09T03:28:36;11.68;;;10.20;;
24833;SDS011;12914;43.702;22.862;2022-07-09T03:31:02;11.20;;;9.77;;
24833;SDS011;12914;43.702;22.862;2022-07-09T03:33:27;12.32;;;10.73;;
24833;SDS011;12914;43.702;22.862;2022-07-09T03:35:53;13.15;;;10.63;;
24833;SDS011;12914;43.702;22.862;2022-07-09T03:38:20;11.77;;;9.95;;
24833;SDS011;12914;43.702;22.862;2022-07-09T03:40:46;13.48;;;10.65;;
24833;SDS011;12914;43.702;22.862;2022-07-09T03:43:11;15.20;;;10.73;;
24833;SDS011;12914;43.702;22.862;2022-07-09T03:45:37;14.35;;;11.32;;
24833;SDS011;12914;43.702;22.862;2022-07-09T03:48:03;15.48;;;11.93;;
24833;SDS011;12914;43.702;22.862;2022-07-09T03:50:29;13.63;;;11.23;;
24833;SDS011;12914;43.702;22.862;2022-07-09T03:52:54;13.07;;;11.43;;
24833;SDS011;12914;43.702;22.862;2022-07-09T03:55:20;17.33;;;11.05;;
24833;SDS011;12914;43.702;22.862;2022-07-09T03:57:45;13.73;;;11.60;;
24833;SDS011;12914;43.702;22.862;2022-07-09T04:00:11;13.63;;;11.95;;
24833;SDS011;12914;43.702;22.862;2022-07-09T04:02:37;15.38;;;12.05;;
24833;SDS011;12914;43.702;22.862;2022-07-09T04:05:02;13.52;;;11.60;;
24833;SDS011;12914;43.702;22.862;2022-07-09T04:07:28;15.77;;;12.73;;
24833;SDS011;12914;43.702;22.862;2022-07-09T04:09:54;18.77;;;12.52;;
24833;SDS011;12914;43.702;22.862;2022-07-09T04:12:20;14.82;;;13.23;;
24833;SDS011;12914;43.702;22.862;2022-07-09T04:14:45;16.65;;;12.10;;
24833;SDS011;12914;43.702;22.862;2022-07-09T04:17:11;14.95;;;11.70;;
24833;SDS011;12914;43.702;22.862;2022-07-09T04:19:36;15.50;;;12.20;;
24833;SDS011;12914;43.702;22.862;2022-07-09T04:22:02;15.38;;;12.40;;
24833;SDS011;12914;43.702;22.862;2022-07-09T04:24:28;13.98;;;11.63;;
24833;SDS011;12914;43.702;22.862;2022-07-09T04:26:54;14.23;;;11.38;;
24833;SDS011;12914;43.702;22.862;2022-07-09T04:29:20;15.00;;;12.52;;
24833;SDS011;12914;43.702;22.862;2022-07-09T04:31:45;14.57;;;11.40;;
24833;SDS011;12914;43.702;22.862;2022-07-09T04:34:11;16.63;;;11.73;;
24833;SDS011;12914;43.702;22.862;2022-07-09T04:36:37;16.55;;;13.38;;
24833;SDS011;12914;43.702;22.862;2022-07-09T04:39:02;15.90;;;12.50;;
24833;SDS011;12914;43.702;22.862;2022-07-09T04:41:28;16.23;;;12.30;;
24833;SDS011;12914;43.702;22.862;2022-07-09T04:43:54;19.02;;;12.60;;
24833;SDS011;12914;43.702;22.862;2022-07-09T04:46:20;21.83;;;13.45;;
24833;SDS011;12914;43.702;22.862;2022-07-09T04:48:47;17.33;;;12.32;;
24833;SDS011;12914;43.702;22.862;2022-07-09T04:51:13;16.60;;;12.98;;
24833;SDS011;12914;43.702;22.862;2022-07-09T04:53:39;15.07;;;12.10;;
24833;SDS011;12914;43.702;22.862;2022-07-09T04:56:05;14.52;;;12.10;;
24833;SDS011;12914;43.702;22.862;2022-07-09T04:58:32;14.20;;;12.38;;
24833;SDS011;12914;43.702;22.862;2022-07-09T05:00:58;14.45;;;12.50;;
24833;SDS011;12914;43.702;22.862;2022-07-09T05:03:23;15.88;;;12.18;;
24833;SDS011;12914;43.702;22.862;2022-07-09T05:05:50;15.43;;;12.07;;
24833;SDS011;12914;43.702;22.862;2022-07-09T05:08:16;14.35;;;11.63;;
24833;SDS011;12914;43.702;22.862;2022-07-09T05:10:42;16.45;;;12.07;;
24833;SDS011;12914;43.702;22.862;2022-07-09T05:13:08;13.13;;;11.40;;
24833;SDS011;12914;43.702;22.862;2022-07-09T05:15:33;15.80;;;12.63;;
24833;SDS011;12914;43.702;22.862;2022-07-09T05:17:59;15.65;;;12.20;;
24833;SDS011;12914;43.702;22.862;2022-07-09T05:20:25;14.68;;;13.18;;
24833;SDS011;12914;43.702;22.862;2022-07-09T05:22:51;14.35;;;12.85;;
24833;SDS011;12914;43.702;22.862;2022-07-09T05:25:17;16.73;;;13.23;;
24833;SDS011;12914;43.702;22.862;2022-07-09T05:27:46;15.30;;;12.23;;
24833;SDS011;12914;43.702;22.862;2022-07-09T05:30:12;15.57;;;11.75;;
24833;SDS011;12914;43.702;22.862;2022-07-09T05:32:40;14.43;;;12.98;;
24833;SDS011;12914;43.702;22.862;2022-07-09T05:35:07;15.23;;;12.55;;
24833;SDS011;12914;43.702;22.862;2022-07-09T05:37:33;15.82;;;12.38;;
24833;SDS011;12914;43.702;22.862;2022-07-09T05:39:59;14.20;;;12.27;;
24833;SDS011;12914;43.702;22.862;2022-07-09T05:42:30;15.10;;;12.60;;
24833;SDS011;12914;43.702;22.862;2022-07-09T05:44:57;17.88;;;12.82;;
24833;SDS011;12914;43.702;22.862;2022-07-09T05:47:23;14.77;;;12.90;;
24833;SDS011;12914;43.702;22.862;2022-07-09T05:49:48;16.48;;;13.55;;
24833;SDS011;12914;43.702;22.862;2022-07-09T05:52:14;14.35;;;12.82;;
24833;SDS011;12914;43.702;22.862;2022-07-09T05:54:39;14.02;;;12.20;;
24833;SDS011;12914;43.702;22.862;2022-07-09T05:57:05;14.95;;;12.43;;
24833;SDS011;12914;43.702;22.862;2022-07-09T05:59:31;13.40;;;12.05;;
24833;SDS011;12914;43.702;22.862;2022-07-09T06:01:57;15.65;;;13.30;;
24833;SDS011;12914;43.702;22.862;2022-07-09T06:04:22;13.48;;;11.65;;
24833;SDS011;12914;43.702;22.862;2022-07-09T06:06:48;15.65;;;13.15;;
24833;SDS011;12914;43.702;22.862;2022-07-09T06:09:13;13.93;;;12.48;;
24833;SDS011;12914;43.702;22.862;2022-07-09T06:11:39;12.93;;;11.43;;
24833;SDS011;12914;43.702;22.862;2022-07-09T06:14:05;14.38;;;11.75;;
24833;SDS011;12914;43.702;22.862;2022-07-09T06:16:31;14.98;;;11.95;;
24833;SDS011;12914;43.702;22.862;2022-07-09T06:18:57;14.70;;;13.10;;
24833;SDS011;12914;43.702;22.862;2022-07-09T06:21:22;13.57;;;11.45;;
24833;SDS011;12914;43.702;22.862;2022-07-09T06:23:48;14.80;;;12.27;;
24833;SDS011;12914;43.702;22.862;2022-07-09T06:26:13;13.13;;;11.18;;
24833;SDS011;12914;43.702;22.862;2022-07-09T06:28:39;13.43;;;11.45;;
24833;SDS011;12914;43.702;22.862;2022-07-09T06:31:04;13.02;;;10.73;;
24833;SDS011;12914;43.702;22.862;2022-07-09T06:33:30;12.48;;;9.88;;
24833;SDS011;12914;43.702;22.862;2022-07-09T06:35:56;12.30;;;10.70;;
24833;SDS011;12914;43.702;22.862;2022-07-09T06:38:21;12.52;;;10.20;;
24833;SDS011;12914;43.702;22.862;2022-07-09T06:40:47;11.85;;;10.55;;
24833;SDS011;12914;43.702;22.862;2022-07-09T06:43:13;10.93;;;9.75;;
24833;SDS011;12914;43.702;22.862;2022-07-09T06:45:38;13.82;;;10.93;;
24833;SDS011;12914;43.702;22.862;2022-07-09T06:48:04;11.85;;;10.65;;
24833;SDS011;12914;43.702;22.862;2022-07-09T06:50:30;12.38;;;11.05;;
24833;SDS011;12914;43.702;22.862;2022-07-09T06:52:56;15.10;;;11.18;;
24833;SDS011;12914;43.702;22.862;2022-07-09T06:55:21;11.82;;;10.63;;
24833;SDS011;12914;43.702;22.862;2022-07-09T06:57:47;12.32;;;10.65;;
24833;SDS011;12914;43.702;22.862;2022-07-09T07:00:13;11.38;;;10.00;;
24833;SDS011;12914;43.702;22.862;2022-07-09T07:02:39;13.60;;;10.63;;
24833;SDS011;12914;43.702;22.862;2022-07-09T07:05:05;13.10;;;9.98;;
24833;SDS011;12914;43.702;22.862;2022-07-09T07:07:31;10.93;;;9.70;;
24833;SDS011;12914;43.702;22.862;2022-07-09T07:09:57;14.05;;;11.98;;
24833;SDS011;12914;43.702;22.862;2022-07-09T07:12:22;11.73;;;10.43;;
24833;SDS011;12914;43.702;22.862;2022-07-09T07:14:48;12.75;;;10.82;;
24833;SDS011;12914;43.702;22.862;2022-07-09T07:17:14;17.38;;;10.50;;
24833;SDS011;12914;43.702;22.862;2022-07-09T07:19:39;10.95;;;9.82;;
24833;SDS011;12914;43.702;22.862;2022-07-09T07:22:05;10.68;;;9.45;;
24833;SDS011;12914;43.702;22.862;2022-07-09T07:24:30;10.95;;;9.85;;
24833;SDS011;12914;43.702;22.862;2022-07-09T07:26:56;10.98;;;9.82;;
24833;SDS011;12914;43.702;22.862;2022-07-09T07:29:22;11.32;;;9.23;;
24833;SDS011;12914;43.702;22.862;2022-07-09T07:31:49;10.50;;;9.05;;
24833;SDS011;12914;43.702;22.862;2022-07-09T07:34:14;12.25;;;9.82;;
24833;SDS011;12914;43.702;22.862;2022-07-09T07:36:40;10.27;;;9.27;;
24833;SDS011;12914;43.702;22.862;2022-07-09T07:39:06;11.05;;;9.35;;
24833;SDS011;12914;43.702;22.862;2022-07-09T07:41:31;10.85;;;9.38;;
24833;SDS011;12914;43.702;22.862;2022-07-09T07:43:57;11.20;;;9.20;;
24833;SDS011;12914;43.702;22.862;2022-07-09T07:46:22;10.35;;;9.35;;
24833;SDS011;12914;43.702;22.862;2022-07-09T07:48:48;10.40;;;9.18;;
24833;SDS011;12914;43.702;22.862;2022-07-09T07:51:14;11.32;;;9.48;;
24833;SDS011;12914;43.702;22.862;2022-07-09T07:53:39;10.98;;;8.82;;
24833;SDS011;12914;43.702;22.862;2022-07-09T07:56:05;13.07;;;9.68;;
24833;SDS011;12914;43.702;22.862;2022-07-09T07:58:32;12.25;;;9.50;;
24833;SDS011;12914;43.702;22.862;2022-07-09T08:00:58;10.35;;;9.25;;
24833;SDS011;12914;43.702;22.862;2022-07-09T08:03:24;11.73;;;10.52;;
24833;SDS011;12914;43.702;22.862;2022-07-09T08:05:49;12.95;;;9.10;;
24833;SDS011;12914;43.702;22.862;2022-07-09T08:08:16;9.80;;;8.80;;
24833;SDS011;12914;43.702;22.862;2022-07-09T08:10:43;11.25;;;8.90;;
24833;SDS011;12914;43.702;22.862;2022-07-09T08:13:13;9.93;;;8.93;;
24833;SDS011;12914;43.702;22.862;2022-07-09T08:15:40;12.02;;;8.80;;
24833;SDS011;12914;43.702;22.862;2022-07-09T08:18:06;10.10;;;9.02;;
24833;SDS011;12914;43.702;22.862;2022-07-09T08:20:34;9.95;;;8.95;;
24833;SDS011;12914;43.702;22.862;2022-07-09T08:23:01;10.73;;;9.65;;
24833;SDS011;12914;43.702;22.862;2022-07-09T08:25:27;10.25;;;8.98;;
24833;SDS011;12914;43.702;22.862;2022-07-09T08:27:53;10.20;;;8.40;;
24833;SDS011;12914;43.702;22.862;2022-07-09T08:30:19;10.35;;;9.35;;
24833;SDS011;12914;43.702;22.862;2022-07-09T08:32:44;14.25;;;9.05;;
24833;SDS011;12914;43.702;22.862;2022-07-09T08:35:10;10.25;;;9.25;;
24833;SDS011;12914;43.702;22.862;2022-07-09T08:37:36;10.93;;;9.40;;
24833;SDS011;12914;43.702;22.862;2022-07-09T08:40:02;10.50;;;8.82;;
24833;SDS011;12914;43.702;22.862;2022-07-09T08:42:28;11.30;;;9.40;;
24833;SDS011;12914;43.702;22.862;2022-07-09T08:44:53;10.30;;;9.30;;
24833;SDS011;12914;43.702;22.862;2022-07-09T08:47:19;11.10;;;9.68;;
24833;SDS011;12914;43.702;22.862;2022-07-09T08:49:46;10.95;;;9.73;;
24833;SDS011;12914;43.702;22.862;2022-07-09T08:52:13;11.20;;;9.98;;
24833;SDS011;12914;43.702;22.862;2022-07-09T08:54:40;9.68;;;8.43;;
24833;SDS011;12914;43.702;22.862;2022-07-09T08:57:08;9.57;;;8.68;;
24833;SDS011;12914;43.702;22.862;2022-07-09T08:59:33;9.82;;;8.82;;
24833;SDS011;12914;43.702;22.862;2022-07-09T09:02:05;10.38;;;9.38;;
24833;SDS011;12914;43.702;22.862;2022-07-09T09:04:33;10.88;;;9.57;;
24833;SDS011;12914;43.702;22.862;2022-07-09T09:07:11;10.55;;;9.48;;
24833;SDS011;12914;43.702;22.862;2022-07-09T09:09:38;11.57;;;9.65;;
24833;SDS011;12914;43.702;22.862;2022-07-09T09:12:04;10.98;;;9.88;;
24833;SDS011;12914;43.702;22.862;2022-07-09T09:14:30;12.00;;;10.80;;
24833;SDS011;12914;43.702;22.862;2022-07-09T09:17:03;11.85;;;10.13;;
24833;SDS011;12914;43.702;22.862;2022-07-09T09:19:34;10.63;;;9.60;;
24833;SDS011;12914;43.702;22.862;2022-07-09T09:22:01;11.02;;;9.80;;
24833;SDS011;12914;43.702;22.862;2022-07-09T09:24:27;10.70;;;9.60;;
24833;SDS011;12914;43.702;22.862;2022-07-09T09:27:00;11.27;;;10.00;;
24833;SDS011;12914;43.702;22.862;2022-07-09T09:29:27;12.82;;;10.80;;
24833;SDS011;12914;43.702;22.862;2022-07-09T09:31:53;12.75;;;10.52;;
24833;SDS011;12914;43.702;22.862;2022-07-09T09:34:20;15.00;;;12.15;;
24833;SDS011;12914;43.702;22.862;2022-07-09T09:36:47;14.90;;;12.05;;
24833;SDS011;12914;43.702;22.862;2022-07-09T09:39:23;15.90;;;12.45;;
24833;SDS011;12914;43.702;22.862;2022-07-09T09:41:51;13.52;;;12.23;;
24833;SDS011;12914;43.702;22.862;2022-07-09T09:44:21;12.82;;;11.52;;
24833;SDS011;12914;43.702;22.862;2022-07-09T09:46:49;14.52;;;13.02;;
24833;SDS011;12914;43.702;22.862;2022-07-09T09:49:15;14.15;;;12.70;;
24833;SDS011;12914;43.702;22.862;2022-07-09T09:54:19;14.80;;;13.30;;
24833;SDS011;12914;43.702;22.862;2022-07-09T09:56:46;12.80;;;11.52;;
24833;SDS011;12914;43.702;22.862;2022-07-09T09:59:13;13.43;;;12.02;;
24833;SDS011;12914;43.702;22.862;2022-07-09T10:01:42;14.80;;;13.20;;
24833;SDS011;12914;43.702;22.862;2022-07-09T10:04:09;13.23;;;11.77;;
24833;SDS011;12914;43.702;22.862;2022-07-09T10:06:36;14.10;;;11.63;;
24833;SDS011;12914;43.702;22.862;2022-07-09T10:09:03;13.27;;;11.88;;
24833;SDS011;12914;43.702;22.862;2022-07-09T10:14:14;15.25;;;13.77;;
24833;SDS011;12914;43.702;22.862;2022-07-09T10:16:42;15.23;;;13.63;;
24833;SDS011;12914;43.702;22.862;2022-07-09T10:19:08;14.48;;;13.05;;
24833;SDS011;12914;43.702;22.862;2022-07-09T10:21:38;15.40;;;12.60;;
24833;SDS011;12914;43.702;22.862;2022-07-09T10:26:42;14.73;;;13.32;;
24833;SDS011;12914;43.702;22.862;2022-07-09T10:31:54;14.05;;;12.73;;
24833;SDS011;12914;43.702;22.862;2022-07-09T10:37:02;13.50;;;11.15;;
24833;SDS011;12914;43.702;22.862;2022-07-09T10:39:29;12.27;;;10.25;;
24833;SDS011;12914;43.702;22.862;2022-07-09T10:42:02;12.65;;;11.45;;
24833;SDS011;12914;43.702;22.862;2022-07-09T10:44:39;11.65;;;10.55;;
24833;SDS011;12914;43.702;22.862;2022-07-09T10:47:05;11.27;;;10.02;;
24833;SDS011;12914;43.702;22.862;2022-07-09T10:49:35;11.73;;;10.63;;
24833;SDS011;12914;43.702;22.862;2022-07-09T10:52:02;11.30;;;10.20;;
24833;SDS011;12914;43.702;22.862;2022-07-09T10:54:29;12.13;;;11.02;;
24833;SDS011;12914;43.702;22.862;2022-07-09T10:56:55;11.77;;;10.57;;
24833;SDS011;12914;43.702;22.862;2022-07-09T10:59:22;10.90;;;9.80;;
24833;SDS011;12914;43.702;22.862;2022-07-09T11:01:48;9.93;;;9.02;;
24833;SDS011;12914;43.702;22.862;2022-07-09T11:06:54;9.68;;;8.75;;
24833;SDS011;12914;43.702;22.862;2022-07-09T11:09:20;8.25;;;7.45;;
24833;SDS011;12914;43.702;22.862;2022-07-09T11:11:46;8.23;;;7.53;;
24833;SDS011;12914;43.702;22.862;2022-07-09T11:14:14;8.55;;;7.68;;
24833;SDS011;12914;43.702;22.862;2022-07-09T11:16:40;8.35;;;7.50;;
24833;SDS011;12914;43.702;22.862;2022-07-09T11:19:13;8.10;;;7.40;;
24833;SDS011;12914;43.702;22.862;2022-07-09T11:21:42;7.97;;;6.70;;
24833;SDS011;12914;43.702;22.862;2022-07-09T11:24:12;6.85;;;6.25;;
24833;SDS011;12914;43.702;22.862;2022-07-09T11:26:42;8.38;;;7.57;;
24833;SDS011;12914;43.702;22.862;2022-07-09T11:29:08;8.90;;;8.00;;
24833;SDS011;12914;43.702;22.862;2022-07-09T11:31:35;7.63;;;6.93;;
24833;SDS011;12914;43.702;22.862;2022-07-09T11:34:01;9.40;;;7.75;;
24833;SDS011;12914;43.702;22.862;2022-07-09T11:36:38;7.82;;;7.13;;
24833;SDS011;12914;43.702;22.862;2022-07-09T11:39:04;8.05;;;7.20;;
24833;SDS011;12914;43.702;22.862;2022-07-09T11:41:42;7.90;;;7.20;;
24833;SDS011;12914;43.702;22.862;2022-07-09T11:44:09;8.38;;;7.65;;
24833;SDS011;12914;43.702;22.862;2022-07-09T11:46:38;7.85;;;7.05;;
24833;SDS011;12914;43.702;22.862;2022-07-09T11:49:13;8.13;;;7.32;;
24833;SDS011;12914;43.702;22.862;2022-07-09T11:51:40;7.85;;;7.15;;
24833;SDS011;12914;43.702;22.862;2022-07-09T11:54:06;8.38;;;7.57;;
24833;SDS011;12914;43.702;22.862;2022-07-09T11:56:44;7.40;;;6.75;;
24833;SDS011;12914;43.702;22.862;2022-07-09T11:59:12;8.80;;;7.13;;
24833;SDS011;12914;43.702;22.862;2022-07-09T12:01:39;8.13;;;7.35;;
24833;SDS011;12914;43.702;22.862;2022-07-09T12:04:04;8.15;;;7.45;;
24833;SDS011;12914;43.702;22.862;2022-07-09T12:06:30;7.45;;;6.70;;
24833;SDS011;12914;43.702;22.862;2022-07-09T12:09:00;7.28;;;6.57;;
24833;SDS011;12914;43.702;22.862;2022-07-09T12:11:28;8.40;;;7.60;;
24833;SDS011;12914;43.702;22.862;2022-07-09T12:13:54;7.72;;;7.05;;
24833;SDS011;12914;43.702;22.862;2022-07-09T12:16:20;7.95;;;7.13;;
24833;SDS011;12914;43.702;22.862;2022-07-09T12:18:46;8.85;;;8.05;;
24833;SDS011;12914;43.702;22.862;2022-07-09T12:21:12;7.55;;;6.88;;
24833;SDS011;12914;43.702;22.862;2022-07-09T12:23:37;8.35;;;7.57;;
24833;SDS011;12914;43.702;22.862;2022-07-09T12:26:03;8.68;;;7.88;;
24833;SDS011;12914;43.702;22.862;2022-07-09T12:28:29;8.60;;;7.80;;
24833;SDS011;12914;43.702;22.862;2022-07-09T12:30:54;7.40;;;6.80;;
24833;SDS011;12914;43.702;22.862;2022-07-09T12:33:29;7.65;;;6.95;;
24833;SDS011;12914;43.702;22.862;2022-07-09T12:35:54;8.27;;;7.38;;
24833;SDS011;12914;43.702;22.862;2022-07-09T12:38:20;9.00;;;8.10;;
24833;SDS011;12914;43.702;22.862;2022-07-09T12:40:45;9.23;;;8.35;;
24833;SDS011;12914;43.702;22.862;2022-07-09T12:43:11;9.20;;;8.30;;
24833;SDS011;12914;43.702;22.862;2022-07-09T12:45:36;11.35;;;9.80;;
24833;SDS011;12914;43.702;22.862;2022-07-09T12:48:02;11.10;;;10.10;;
24833;SDS011;12914;43.702;22.862;2022-07-09T12:50:28;10.45;;;8.82;;
24833;SDS011;12914;43.702;22.862;2022-07-09T12:52:53;9.90;;;8.90;;
24833;SDS011;12914;43.702;22.862;2022-07-09T12:55:20;12.57;;;10.77;;
24833;SDS011;12914;43.702;22.862;2022-07-09T12:57:46;11.60;;;10.45;;
24833;SDS011;12914;43.702;22.862;2022-07-09T13:00:11;11.23;;;10.13;;
24833;SDS011;12914;43.702;22.862;2022-07-09T13:02:39;12.60;;;11.32;;
24833;SDS011;12914;43.702;22.862;2022-07-09T13:05:05;11.88;;;10.70;;
24833;SDS011;12914;43.702;22.862;2022-07-09T13:07:31;12.25;;;11.10;;
24833;SDS011;12914;43.702;22.862;2022-07-09T13:09:57;12.70;;;11.48;;
24833;SDS011;12914;43.702;22.862;2022-07-09T13:12:22;13.38;;;12.07;;
24833;SDS011;12914;43.702;22.862;2022-07-09T13:14:48;13.15;;;11.88;;
24833;SDS011;12914;43.702;22.862;2022-07-09T13:17:13;12.07;;;10.80;;
24833;SDS011;12914;43.702;22.862;2022-07-09T13:19:39;12.77;;;11.57;;
24833;SDS011;12914;43.702;22.862;2022-07-09T13:22:05;13.13;;;11.77;;
24833;SDS011;12914;43.702;22.862;2022-07-09T13:24:32;13.23;;;11.82;;
24833;SDS011;12914;43.702;22.862;2022-07-09T13:26:57;16.67;;;13.73;;
24833;SDS011;12914;43.702;22.862;2022-07-09T13:29:23;14.98;;;13.38;;
24833;SDS011;12914;43.702;22.862;2022-07-09T13:31:49;14.68;;;12.57;;
24833;SDS011;12914;43.702;22.862;2022-07-09T13:34:14;14.80;;;13.02;;
24833;SDS011;12914;43.702;22.862;2022-07-09T13:36:40;15.02;;;13.43;;
24833;SDS011;12914;43.702;22.862;2022-07-09T13:39:06;14.85;;;13.35;;
24833;SDS011;12914;43.702;22.862;2022-07-09T13:41:31;15.05;;;13.45;;
24833;SDS011;12914;43.702;22.862;2022-07-09T13:43:57;19.73;;;17.23;;
24833;SDS011;12914;43.702;22.862;2022-07-09T13:46:22;17.25;;;15.40;;
24833;SDS011;12914;43.702;22.862;2022-07-09T13:48:48;17.77;;;14.25;;
24833;SDS011;12914;43.702;22.862;2022-07-09T13:51:13;16.52;;;14.73;;
24833;SDS011;12914;43.702;22.862;2022-07-09T13:53:39;15.85;;;14.15;;
24833;SDS011;12914;43.702;22.862;2022-07-09T13:56:05;14.25;;;12.85;;
24833;SDS011;12914;43.702;22.862;2022-07-09T13:58:31;13.07;;;11.45;;
24833;SDS011;12914;43.702;22.862;2022-07-09T14:00:57;16.50;;;11.55;;
24833;SDS011;12914;43.702;22.862;2022-07-09T14:03:22;14.75;;;13.25;;
24833;SDS011;12914;43.702;22.862;2022-07-09T14:05:48;13.82;;;12.25;;
24833;SDS011;12914;43.702;22.862;2022-07-09T14:08:13;14.48;;;12.90;;
24833;SDS011;12914;43.702;22.862;2022-07-09T14:10:39;14.80;;;11.65;;
24833;SDS011;12914;43.702;22.862;2022-07-09T14:13:05;12.90;;;11.60;;
24833;SDS011;12914;43.702;22.862;2022-07-09T14:15:30;14.32;;;11.00;;
24833;SDS011;12914;43.702;22.862;2022-07-09T14:17:58;13.55;;;12.13;;
24833;SDS011;12914;43.702;22.862;2022-07-09T14:20:24;13.65;;;12.35;;
24833;SDS011;12914;43.702;22.862;2022-07-09T14:22:50;13.73;;;11.57;;
24833;SDS011;12914;43.702;22.862;2022-07-09T14:25:15;13.50;;;12.13;;
24833;SDS011;12914;43.702;22.862;2022-07-09T14:27:41;13.93;;;12.52;;
24833;SDS011;12914;43.702;22.862;2022-07-09T14:30:07;14.77;;;11.80;;
24833;SDS011;12914;43.702;22.862;2022-07-09T14:32:34;13.55;;;12.10;;